createdAt,value
2022-11-22T00:00:49.189Z,6.91
2022-11-22T00:03:18.096Z,6.91
2022-11-22T00:05:45.778Z,6.87
2022-11-22T00:08:13.417Z,6.87
2022-11-22T00:10:41.096Z,6.88
2022-11-22T00:13:08.936Z,6.84
2022-11-22T00:15:36.688Z,6.82
2022-11-22T00:18:04.376Z,6.82
2022-11-22T00:20:32.059Z,6.85
2022-11-22T00:22:59.800Z,6.85
2022-11-22T00:25:27.911Z,6.86
2022-11-22T00:27:55.938Z,6.91
2022-11-22T00:30:23.536Z,6.94
2022-11-22T00:32:51.180Z,6.95
2022-11-22T00:35:18.872Z,6.93
2022-11-22T00:37:46.580Z,6.95
2022-11-22T00:40:14.231Z,6.96
2022-11-22T00:42:41.882Z,6.98
2022-11-22T00:45:09.913Z,7.01
2022-11-22T00:47:37.647Z,7.05
2022-11-22T00:50:06.550Z,7.05
2022-11-22T00:52:34.220Z,7.05
2022-11-22T00:55:01.961Z,7.06
2022-11-22T00:57:29.816Z,7.05
2022-11-22T00:59:57.449Z,7.09
2022-11-22T01:02:25.181Z,7.10
2022-11-22T01:04:52.872Z,7.10
2022-11-22T01:07:20.529Z,7.14
2022-11-22T01:09:48.193Z,7.14
2022-11-22T01:12:15.874Z,7.18
2022-11-22T01:14:43.670Z,7.21
2022-11-22T01:17:11.361Z,7.26
2022-11-22T01:19:39.040Z,7.31
2022-11-22T01:22:06.725Z,7.34
2022-11-22T01:24:34.379Z,7.35
2022-11-22T01:27:02.090Z,7.34
2022-11-22T01:29:30.131Z,7.38
2022-11-22T01:31:58.115Z,7.39
2022-11-22T01:34:25.945Z,7.43
2022-11-22T01:36:53.765Z,7.46
2022-11-22T01:39:21.549Z,7.48
2022-11-22T01:41:49.319Z,7.49
2022-11-22T01:44:25.208Z,7.48
2022-11-22T01:47:00.798Z,7.50
2022-11-22T01:49:40.701Z,7.50
2022-11-22T01:52:13.475Z,7.46
2022-11-22T01:54:45.016Z,7.46
2022-11-22T01:57:18.367Z,7.38
2022-11-22T01:59:53.259Z,7.38
2022-11-22T02:02:21.007Z,7.27
2022-11-22T02:04:52.021Z,7.27
2022-11-22T02:07:32.664Z,7.26
2022-11-22T02:10:00.357Z,7.22
2022-11-22T02:12:31.257Z,7.16
2022-11-22T02:15:00.478Z,7.10
2022-11-22T02:17:28.621Z,7.06
2022-11-22T02:19:57.078Z,7.04
2022-11-22T02:23:02.754Z,6.99
2022-11-22T02:25:42.449Z,6.97
2022-11-22T02:28:11.449Z,6.95
2022-11-22T02:30:40.097Z,6.91
2022-11-22T02:33:08.799Z,6.89
2022-11-22T02:35:36.852Z,6.87
2022-11-22T02:38:08.789Z,6.83
2022-11-22T02:40:43.748Z,6.81
2022-11-22T02:43:17.562Z,6.80
2022-11-22T02:45:45.608Z,6.79
2022-11-22T02:48:16.321Z,6.76
2022-11-22T02:50:44.574Z,6.75
2022-11-22T02:53:13.052Z,6.74
2022-11-22T02:55:40.863Z,6.73
2022-11-22T02:58:08.616Z,6.67
2022-11-22T03:00:38.422Z,6.69
2022-11-22T03:03:06.745Z,6.69
2022-11-22T03:05:34.716Z,6.66
2022-11-22T03:08:02.361Z,6.66
2022-11-22T03:10:29.959Z,6.65
2022-11-22T03:12:58.970Z,6.64
2022-11-22T03:15:27.113Z,6.62
2022-11-22T03:18:02.562Z,6.62
2022-11-22T03:20:30.886Z,6.65
2022-11-22T03:22:58.555Z,6.63
2022-11-22T03:25:27.510Z,6.63
2022-11-22T03:27:55.206Z,6.62
2022-11-22T03:30:22.992Z,6.60
2022-11-22T03:32:50.679Z,6.58
2022-11-22T03:35:18.441Z,6.62
2022-11-22T03:37:46.103Z,6.61
2022-11-22T03:40:14.427Z,6.61
2022-11-22T03:42:42.528Z,6.59
2022-11-22T03:45:10.559Z,6.57
2022-11-22T03:47:38.294Z,6.56
2022-11-22T03:50:06.818Z,6.55
2022-11-22T03:52:34.533Z,6.53
2022-11-22T03:55:02.234Z,6.56
2022-11-22T03:57:30.033Z,6.55
2022-11-22T03:59:57.679Z,6.56
2022-11-22T04:02:25.458Z,6.55
2022-11-22T04:04:53.296Z,6.55
2022-11-22T04:07:21.069Z,6.53
2022-11-22T04:09:48.706Z,6.53
2022-11-22T04:12:16.492Z,6.52
2022-11-22T04:15:02.688Z,6.51
2022-11-22T04:17:42.453Z,6.53
2022-11-22T04:20:37.449Z,6.51
2022-11-22T04:23:32.227Z,6.50
2022-11-22T04:26:01.674Z,6.50
2022-11-22T04:28:54.141Z,6.49
2022-11-22T04:31:35.404Z,6.49
2022-11-22T04:34:03.178Z,6.48
2022-11-22T04:36:30.915Z,6.46
2022-11-22T04:38:58.555Z,6.47
2022-11-22T04:41:26.214Z,6.46
2022-11-22T04:44:14.183Z,6.45
2022-11-22T04:46:41.920Z,6.46
2022-11-22T04:49:09.555Z,6.45
2022-11-22T04:51:55.659Z,6.44
2022-11-22T04:54:23.355Z,6.45
2022-11-22T04:56:51.081Z,6.47
2022-11-22T04:59:18.744Z,6.46
2022-11-22T05:01:46.499Z,6.46
2022-11-22T05:04:14.164Z,6.46
2022-11-22T05:06:41.861Z,6.48
2022-11-22T05:09:09.771Z,6.51
2022-11-22T05:11:37.456Z,6.50
2022-11-22T05:14:05.600Z,6.51
2022-11-22T05:16:33.286Z,6.52
2022-11-22T05:19:00.987Z,6.52
2022-11-22T05:21:30.224Z,6.53
2022-11-22T05:23:58.217Z,6.57
2022-11-22T05:26:29.300Z,6.59
2022-11-22T05:28:59.288Z,6.59
2022-11-22T05:31:28.545Z,6.57
2022-11-22T05:33:58.588Z,6.60
2022-11-22T05:36:26.886Z,6.59
2022-11-22T05:38:56.423Z,6.59
2022-11-22T05:41:24.084Z,6.60
2022-11-22T05:43:51.942Z,6.58
2022-11-22T05:46:24.743Z,6.60
2022-11-22T05:48:54.083Z,6.59
2022-11-22T05:51:24.260Z,6.60
2022-11-22T05:53:53.724Z,6.60
2022-11-22T05:56:24.124Z,6.60
2022-11-22T05:58:52.429Z,6.60
2022-11-22T06:01:23.001Z,6.60
2022-11-22T06:03:51.445Z,6.60
2022-11-22T06:06:19.256Z,6.62
2022-11-22T06:08:49.079Z,6.62
2022-11-22T06:11:22.746Z,6.61
2022-11-22T06:13:56.099Z,6.57
2022-11-22T06:16:24.437Z,6.57
2022-11-22T06:18:52.150Z,6.57
2022-11-22T06:21:25.746Z,6.57
2022-11-22T06:23:55.747Z,6.55
2022-11-22T06:26:24.758Z,6.55
2022-11-22T06:28:52.936Z,6.55
2022-11-22T06:31:23.122Z,6.55
2022-11-22T06:33:51.362Z,6.56
2022-11-22T06:36:24.858Z,6.57
2022-11-22T06:38:52.827Z,6.56
2022-11-22T06:41:23.165Z,6.58
2022-11-22T06:43:52.760Z,6.60
2022-11-22T06:46:23.305Z,6.60
2022-11-22T06:48:51.625Z,6.61
2022-11-22T06:51:22.512Z,6.64
2022-11-22T06:53:51.067Z,6.65
2022-11-22T06:56:21.222Z,6.64
2022-11-22T06:58:50.339Z,6.65
2022-11-22T07:01:29.752Z,6.66
2022-11-22T07:03:59.338Z,6.68
2022-11-22T07:06:32.599Z,6.72
2022-11-22T07:09:01.763Z,6.75
2022-11-22T07:11:32.834Z,6.93
2022-11-22T07:14:07.457Z,7.06
2022-11-22T07:16:37.221Z,7.18
2022-11-22T07:19:05.286Z,7.16
2022-11-22T07:21:33.701Z,7.34
2022-11-22T07:24:01.340Z,7.32
2022-11-22T07:26:29.630Z,7.30
2022-11-22T07:28:57.741Z,7.30
2022-11-22T07:31:25.765Z,7.26
2022-11-22T07:33:53.469Z,7.18
2022-11-22T07:36:23.198Z,7.15
2022-11-22T07:38:51.913Z,7.03
2022-11-22T07:41:20.853Z,7.01
2022-11-22T07:43:48.652Z,6.89
2022-11-22T07:46:34.091Z,6.87
2022-11-22T07:49:03.788Z,6.89
2022-11-22T07:51:32.291Z,6.82
2022-11-22T07:54:00.065Z,6.79
2022-11-22T07:56:28.003Z,6.80
2022-11-22T07:58:56.935Z,6.84
2022-11-22T08:01:24.893Z,6.80
2022-11-22T08:03:52.730Z,6.81
2022-11-22T08:06:20.461Z,6.78
2022-11-22T08:08:48.246Z,6.77
2022-11-22T08:11:15.924Z,6.74
2022-11-22T08:13:43.941Z,6.72
2022-11-22T08:16:14.708Z,6.68
2022-11-22T08:18:46.783Z,6.69
2022-11-22T08:21:15.636Z,6.71
2022-11-22T08:23:45.570Z,6.68
2022-11-22T08:26:15.491Z,6.64
2022-11-22T08:28:44.497Z,6.65
2022-11-22T08:31:15.385Z,6.64
2022-11-22T08:33:43.417Z,6.65
2022-11-22T08:36:11.372Z,6.67
2022-11-22T08:38:39.891Z,6.67
2022-11-22T08:41:08.504Z,6.69
2022-11-22T08:43:36.292Z,6.70
2022-11-22T08:46:05.001Z,6.74
2022-11-22T08:48:34.298Z,6.74
2022-11-22T08:51:07.732Z,6.76
2022-11-22T08:53:37.803Z,6.78
2022-11-22T08:56:07.659Z,6.78
2022-11-22T08:58:35.378Z,6.82
2022-11-22T09:01:07.184Z,6.86
2022-11-22T09:03:36.825Z,6.86
2022-11-22T09:09:08.613Z,6.96
2022-11-22T09:11:42.207Z,6.95
2022-11-22T09:14:10.051Z,6.98
2022-11-22T09:16:37.721Z,7.05
2022-11-22T09:19:05.529Z,7.11
2022-11-22T09:21:33.205Z,7.16
2022-11-22T09:24:00.917Z,7.25
2022-11-22T09:26:28.728Z,7.30
2022-11-22T09:28:58.076Z,7.33
2022-11-22T09:31:25.755Z,7.38
2022-11-22T09:33:53.622Z,7.45
2022-11-22T09:36:24.154Z,7.47
2022-11-22T09:38:52.759Z,7.50
2022-11-22T09:41:40.733Z,7.55
2022-11-22T09:44:29.751Z,7.57
2022-11-22T09:47:25.510Z,7.63
2022-11-22T09:50:05.158Z,7.61
2022-11-22T09:52:47.561Z,7.68
2022-11-22T09:55:42.175Z,7.74
2022-11-22T09:58:33.175Z,7.79
2022-11-22T10:01:35.290Z,7.86
2022-11-22T10:04:05.781Z,7.91
2022-11-22T10:06:40.387Z,7.99
2022-11-22T10:09:27.858Z,8.02
2022-11-22T10:12:00.915Z,8.02
2022-11-22T10:14:35.554Z,8.06
2022-11-22T10:17:44.912Z,8.01
2022-11-22T10:20:15.276Z,7.95
2022-11-22T10:22:43.150Z,7.90
2022-11-22T10:25:25.502Z,7.90
2022-11-22T10:28:13.568Z,7.94
2022-11-22T10:30:47.527Z,7.96
2022-11-22T10:33:45.024Z,8.00
2022-11-22T10:36:24.684Z,8.08
2022-11-22T10:39:18.842Z,8.10
2022-11-22T10:41:55.472Z,8.08
2022-11-22T10:44:39.920Z,8.06
2022-11-22T10:47:10.558Z,8.11
2022-11-22T10:50:14.029Z,8.10
2022-11-22T10:52:58.616Z,8.14
2022-11-22T10:55:41.177Z,8.16
2022-11-22T10:58:21.268Z,8.19
2022-11-22T11:00:57.236Z,8.22
2022-11-22T11:03:37.263Z,8.20
2022-11-22T11:06:24.463Z,8.14
2022-11-22T11:09:54.825Z,8.17
2022-11-22T11:11:53.284Z,8.20
2022-11-22T11:14:30.754Z,8.24
2022-11-22T11:17:00.624Z,8.18
2022-11-22T11:19:35.238Z,8.21
2022-11-22T11:22:30.521Z,8.21
2022-11-22T11:25:42.105Z,8.22
2022-11-22T11:28:23.502Z,8.27
2022-11-22T11:30:56.185Z,8.33
2022-11-22T11:33:29.979Z,8.36
2022-11-22T11:36:09.878Z,8.33
2022-11-22T11:38:43.512Z,8.24
2022-11-22T11:41:38.677Z,8.22
2022-11-22T11:44:34.014Z,8.28
2022-11-22T11:47:02.329Z,8.27
2022-11-22T11:49:32.642Z,8.17
2022-11-22T11:52:04.647Z,8.17
2022-11-22T11:54:44.034Z,8.14
2022-11-22T11:57:26.485Z,8.16
2022-11-22T11:59:55.439Z,8.19
2022-11-22T12:02:26.407Z,8.22
2022-11-22T12:05:00.509Z,8.18
2022-11-22T12:07:48.991Z,8.12
2022-11-22T12:10:41.844Z,8.14
2022-11-22T12:13:28.621Z,8.13
2022-11-22T12:16:21.989Z,8.09
2022-11-22T12:18:52.703Z,8.06
2022-11-22T12:21:51.037Z,8.01
2022-11-22T12:27:12.415Z,8.05
2022-11-22T12:29:42.729Z,8.15
2022-11-22T12:32:16.423Z,8.16
2022-11-22T12:34:56.042Z,8.18
2022-11-22T12:37:37.402Z,8.21
2022-11-22T12:40:15.199Z,8.28
2022-11-22T12:42:50.211Z,8.28
2022-11-22T12:45:46.683Z,8.37
2022-11-22T12:48:22.156Z,8.37
2022-11-22T12:50:55.760Z,8.36
2022-11-22T12:53:31.797Z,8.43
2022-11-22T12:56:03.415Z,8.48
2022-11-22T12:58:46.280Z,8.52
2022-11-22T13:01:50.588Z,8.50
2022-11-22T13:04:30.011Z,8.38
2022-11-22T13:07:20.957Z,8.39
2022-11-22T13:10:04.486Z,8.42
2022-11-22T13:12:38.559Z,8.48
2022-11-22T13:15:06.527Z,8.48
2022-11-22T13:17:37.113Z,8.44
2022-11-22T13:20:10.188Z,8.42
2022-11-22T13:22:43.605Z,8.45
2022-11-22T13:25:33.107Z,8.41
2022-11-22T13:28:06.605Z,8.38
2022-11-22T13:30:38.243Z,8.35
2022-11-22T13:33:07.492Z,8.28
2022-11-22T13:35:36.855Z,8.31
2022-11-22T13:38:11.345Z,8.28
2022-11-22T13:40:46.380Z,8.26
2022-11-22T13:43:22.398Z,8.23
2022-11-22T13:45:52.698Z,8.23
2022-11-22T13:48:42.321Z,8.18
2022-11-22T13:51:15.833Z,8.21
2022-11-22T13:53:45.802Z,8.19
2022-11-22T13:56:16.564Z,8.15
2022-11-22T13:59:09.482Z,8.19
2022-11-22T14:01:37.196Z,8.19
2022-11-22T14:04:25.834Z,8.20
2022-11-22T14:06:56.879Z,8.21
2022-11-22T14:09:54.611Z,8.17
2022-11-22T14:12:51.879Z,8.17
2022-11-22T14:15:49.050Z,8.16
2022-11-22T14:18:39.317Z,8.20
2022-11-22T14:21:15.567Z,8.20
2022-11-22T14:24:04.858Z,8.20
2022-11-22T14:26:42.763Z,8.15
2022-11-22T14:29:53.357Z,8.14
2022-11-22T14:32:24.440Z,8.13
2022-11-22T14:35:04.326Z,8.10
2022-11-22T14:37:34.869Z,8.01
2022-11-22T14:40:08.315Z,7.99
2022-11-22T14:42:39.150Z,7.94
2022-11-22T14:45:12.665Z,7.93
2022-11-22T14:47:44.545Z,7.92
2022-11-22T14:50:23.494Z,7.95
2022-11-22T14:52:52.250Z,7.91
2022-11-22T14:55:23.743Z,7.91
2022-11-22T14:58:00.951Z,7.89
2022-11-22T15:00:49.541Z,7.89
2022-11-22T15:09:14.903Z,7.87
2022-11-22T15:09:20.995Z,7.86
2022-11-22T15:10:30.926Z,7.85
2022-11-22T15:13:16.469Z,7.84
2022-11-22T15:59:41.056Z,7.86
2022-11-22T16:02:17.295Z,7.86
2022-11-22T16:06:04.594Z,7.87
2022-11-22T16:07:49.266Z,7.89
2022-11-22T16:10:23.935Z,7.90
2022-11-22T16:12:52.798Z,7.86
2022-11-22T16:15:37.304Z,7.84
2022-11-22T16:18:25.811Z,7.80
2022-11-22T16:21:00.230Z,7.80
2022-11-22T16:23:29.992Z,7.79
2022-11-22T16:26:23.123Z,7.78
2022-11-22T16:28:52.887Z,7.78
2022-11-22T16:31:24.988Z,7.80
2022-11-22T16:33:54.110Z,7.77
2022-11-22T16:36:23.697Z,7.79
2022-11-22T16:38:52.180Z,7.78
2022-11-22T16:41:22.548Z,7.78
2022-11-22T16:44:02.680Z,7.78
2022-11-22T16:46:30.875Z,7.78
2022-11-22T16:48:58.620Z,7.77
2022-11-22T16:51:31.684Z,7.80
2022-11-22T16:54:01.719Z,7.80
2022-11-22T16:56:31.451Z,7.79
2022-11-22T16:58:59.878Z,7.76
2022-11-22T17:01:33.767Z,7.78
2022-11-22T17:04:03.892Z,7.76
2022-11-22T17:06:32.958Z,7.71
2022-11-22T17:09:01.676Z,7.71
2022-11-22T17:11:32.804Z,7.70
2022-11-22T17:14:01.293Z,7.72
2022-11-22T17:16:29.038Z,7.70
2022-11-22T17:18:56.784Z,7.67
2022-11-22T17:21:35.824Z,7.64
2022-11-22T17:24:07.669Z,7.61
2022-11-22T17:26:35.869Z,7.60
2022-11-22T17:29:03.568Z,7.57
2022-11-22T17:31:31.443Z,7.54
2022-11-22T17:34:00.270Z,7.53
2022-11-22T17:36:30.724Z,7.47
2022-11-22T17:38:59.702Z,7.43
2022-11-22T17:41:28.135Z,7.44
2022-11-22T17:43:55.917Z,7.40
2022-11-22T17:46:24.470Z,7.36
2022-11-22T17:48:59.714Z,7.32
2022-11-22T17:51:29.384Z,7.28
2022-11-22T17:53:59.344Z,7.23
2022-11-22T17:56:28.292Z,7.19
2022-11-22T17:58:55.909Z,7.16
2022-11-22T18:01:24.443Z,7.14
2022-11-22T18:03:52.525Z,7.10
2022-11-22T18:06:24.531Z,7.06
2022-11-22T18:08:52.182Z,7.01
2022-11-22T18:11:19.900Z,7.00
2022-11-22T18:13:47.765Z,6.96
2022-11-22T18:16:18.331Z,6.95
2022-11-22T18:18:56.670Z,6.94
2022-11-22T18:21:25.738Z,6.91
2022-11-22T18:23:53.551Z,6.89
2022-11-22T18:26:38.770Z,6.88
2022-11-22T18:31:55.866Z,6.86
2022-11-22T18:34:23.995Z,6.87
2022-11-22T18:36:56.003Z,6.82
2022-11-22T18:39:27.527Z,6.86
2022-11-22T18:41:55.229Z,6.83
2022-11-22T18:44:22.970Z,6.85
2022-11-22T18:46:50.657Z,6.85
2022-11-22T18:49:18.572Z,6.87
2022-11-22T18:51:46.408Z,6.87
2022-11-22T18:54:14.423Z,6.86
2022-11-22T18:56:42.160Z,6.87
2022-11-22T18:59:13.530Z,6.84
2022-11-22T19:01:41.860Z,6.83
2022-11-22T19:04:13.815Z,6.82
2022-11-22T19:06:42.941Z,6.83
2022-11-22T19:09:11.194Z,6.81
2022-11-22T19:11:38.909Z,6.80
2022-11-22T19:14:07.426Z,6.78
2022-11-22T19:16:35.132Z,6.77
2022-11-22T19:19:02.883Z,6.81
2022-11-22T19:21:31.304Z,6.81
2022-11-22T19:23:59.199Z,6.81
2022-11-22T19:26:28.707Z,6.82
2022-11-22T19:28:58.536Z,6.79
2022-11-22T19:31:29.880Z,6.73
2022-11-22T19:33:57.705Z,6.68
2022-11-22T19:36:32.689Z,6.65
2022-11-22T19:39:01.829Z,6.61
2022-11-22T19:41:29.913Z,6.60
2022-11-22T19:43:58.192Z,6.59
2022-11-22T19:46:27.069Z,6.54
2022-11-22T19:48:57.316Z,6.55
2022-11-22T19:51:26.021Z,6.53
2022-11-22T19:53:55.008Z,6.51
2022-11-22T19:56:22.831Z,6.44
2022-11-22T19:58:52.861Z,6.46
2022-11-22T20:01:22.119Z,6.45
2022-11-22T20:03:58.932Z,6.42
2022-11-22T20:06:27.528Z,6.41
2022-11-22T20:09:01.399Z,6.36
2022-11-22T20:11:29.795Z,6.33
2022-11-22T20:13:58.562Z,6.28
2022-11-22T20:16:29.057Z,6.28
2022-11-22T20:19:02.191Z,6.25
2022-11-22T20:21:34.994Z,6.21
2022-11-22T20:24:03.566Z,6.20
2022-11-22T20:26:32.737Z,6.18
2022-11-22T20:29:02.119Z,6.11
2022-11-22T20:31:34.763Z,6.10
2022-11-22T20:34:03.530Z,6.06
2022-11-22T20:36:34.266Z,6.06
2022-11-22T20:39:08.391Z,6.05
2022-11-22T20:41:38.603Z,6.02
2022-11-22T20:44:06.778Z,5.99
2022-11-22T20:46:37.207Z,5.97
2022-11-22T20:49:05.103Z,5.93
2022-11-22T20:51:33.301Z,5.90
2022-11-22T20:54:01.160Z,5.87
2022-11-22T20:56:30.017Z,5.86
2022-11-22T20:58:57.832Z,5.83
2022-11-22T21:01:28.102Z,5.80
2022-11-22T21:03:56.533Z,5.79
2022-11-22T21:06:25.513Z,5.77
2022-11-22T21:08:53.232Z,5.74
2022-11-22T21:11:29.432Z,5.71
2022-11-22T21:13:58.300Z,5.70
2022-11-22T21:16:28.823Z,5.69
2022-11-22T21:19:02.475Z,5.67
2022-11-22T21:21:31.292Z,5.67
2022-11-22T21:24:01.543Z,5.67
2022-11-22T21:26:30.251Z,5.68
2022-11-22T21:28:58.822Z,5.72
2022-11-22T21:31:27.478Z,5.75
2022-11-22T21:33:55.213Z,5.76
2022-11-22T21:36:23.037Z,5.79
2022-11-22T21:38:50.732Z,5.80
2022-11-22T21:41:39.358Z,5.83
2022-11-22T21:44:08.724Z,5.86
2022-11-22T21:46:36.425Z,5.89
2022-11-22T21:49:04.537Z,5.89
2022-11-22T21:51:33.001Z,5.91
2022-11-22T21:54:02.269Z,5.95
2022-11-22T21:56:30.548Z,5.94
2022-11-22T21:58:58.565Z,5.99
2022-11-22T22:01:26.873Z,6.03
2022-11-22T22:03:55.507Z,6.06
2022-11-22T22:06:23.620Z,6.11
2022-11-22T22:08:51.426Z,6.13
2022-11-22T22:11:19.162Z,6.16
2022-11-22T22:13:46.884Z,6.19
2022-11-22T22:16:19.707Z,6.24
2022-11-22T22:18:47.550Z,6.28
2022-11-22T22:21:16.221Z,6.32
2022-11-22T22:23:45.275Z,6.37
2022-11-22T22:26:15.861Z,6.38
2022-11-22T22:28:45.365Z,6.40
2022-11-22T22:31:17.883Z,6.38
2022-11-22T22:33:46.714Z,6.39
2022-11-22T22:36:14.966Z,6.43
2022-11-22T22:38:43.036Z,6.46
2022-11-22T22:41:12.732Z,6.47
2022-11-22T22:43:43.111Z,6.45
2022-11-22T22:46:18.003Z,6.45
2022-11-22T22:48:46.194Z,6.38
2022-11-22T22:51:17.989Z,6.42
2022-11-22T22:53:46.974Z,6.43
2022-11-22T22:56:16.478Z,6.42
2022-11-22T22:58:44.281Z,6.44
2022-11-22T23:01:18.480Z,6.46
2022-11-22T23:03:54.276Z,6.46
2022-11-22T23:06:26.129Z,6.45
2022-11-22T23:08:54.681Z,6.47
2022-11-22T23:11:46.788Z,6.45
2022-11-22T23:14:16.598Z,6.42
2022-11-22T23:16:44.292Z,6.43
2022-11-22T23:19:12.158Z,6.44
2022-11-22T23:21:40.156Z,6.39
2022-11-22T23:24:08.971Z,6.35
2022-11-22T23:26:37.004Z,6.30
2022-11-22T23:29:05.405Z,6.25
2022-11-22T23:31:33.549Z,6.24
2022-11-22T23:34:02.548Z,6.22
2022-11-22T23:36:31.595Z,6.16
2022-11-22T23:39:00.531Z,6.11
2022-11-22T23:41:28.270Z,6.10
2022-11-22T23:43:57.615Z,6.06
2022-11-22T23:46:28.615Z,6.00
2022-11-22T23:48:58.862Z,5.91
2022-11-22T23:51:28.670Z,5.90
2022-11-22T23:53:57.728Z,5.86
2022-11-22T23:56:25.964Z,5.85
2022-11-22T23:58:53.928Z,5.85
